Terminal Aerodrome Forecast
Issued by NWS Mt. Holly, NJ

Home | Current Version | Previous Version | Text Only | Print | Product List | Glossary On
Versions: 1 2 3 4 5 6 7 8 9 10 11 12 13 14 15
000
FTUS41 KPHI 211100
TAFTTN
TAF
KTTN 211131Z 2112/2212 16003KT P6SM SCT050
      TEMPO 2112/2113 BKN050
     FM211800 20004KT P6SM VCSH SCT040 BKN060
     FM212100 17006KT P6SM -SHRA BKN040 BKN100
     FM220000 15004KT 6SM SHRA SCT025 BKN040
      TEMPO 2201/2204 5SM SHRA BKN025
     FM220800 00000KT 4SM BR BKN025=

USA.gov is the U.S. government's official web portal to all federal, state and local government web resources and services.